Time;durP1;ratioP1;P1;durP2;ratioP2;P2;SDS_P1;SDS_P2;PMS_P1;PMS_P2;Temp;Humidity;BMP_temperature;BMP_pressure;BME280_temperature;BME280_humidity;BME280_pressure;Samples;Min_cycle;Max_cycle;Signal;HPM_P1;HPM_P2
2021/10/29 00:00:30;;;;;;;13.20;9.93;;;;;;;7.95;95.25;100945.50;5054737;28;20116;-81
2021/10/29 00:02:56;;;;;;;23.98;9.18;;;;;;;8.00;95.17;100936.34;5054058;28;20111;-80
2021/10/29 00:05:21;;;;;;;14.65;9.02;;;;;;;8.05;95.26;100934.22;5054803;28;20449;-81
2021/10/29 00:07:47;;;;;;;11.50;8.98;;;;;;;8.10;95.28;100932.84;5053865;28;20067;-82
2021/10/29 00:10:12;;;;;;;11.57;7.97;;;;;;;8.12;94.84;100941.56;5054424;28;20033;-81
2021/10/29 00:12:37;;;;;;;11.57;7.45;;;;;;;8.15;94.48;100931.66;5053146;28;20098;-81
2021/10/29 00:15:04;;;;;;;12.35;8.30;;;;;;;8.15;94.12;100940.47;5053932;28;20029;-82
2021/10/29 00:17:29;;;;;;;12.32;7.78;;;;;;;8.10;93.64;100934.69;5052823;28;20040;-80
2021/10/29 00:19:55;;;;;;;16.67;8.25;;;;;;;8.04;94.00;100938.66;5054024;28;20045;-82
2021/10/29 00:22:20;;;;;;;17.08;7.70;;;;;;;7.96;93.91;100935.78;5054374;28;20037;-82
2021/10/29 00:24:46;;;;;;;11.88;7.65;;;;;;;7.87;94.08;100929.38;5053868;28;20029;-81
2021/10/29 00:27:12;;;;;;;12.48;8.75;;;;;;;7.83;94.57;100933.22;5054339;28;20065;-83
2021/10/29 00:29:37;;;;;;;10.07;7.63;;;;;;;7.80;94.54;100927.31;5054364;28;20373;-82
2021/10/29 00:32:03;;;;;;;13.38;8.32;;;;;;;7.72;94.80;100925.28;5053571;28;20332;-82
2021/10/29 00:34:28;;;;;;;10.40;7.40;;;;;;;7.64;94.95;100931.13;5054003;28;20186;-81
2021/10/29 00:36:54;;;;;;;12.43;8.63;;;;;;;7.59;95.88;100926.19;5053346;28;20044;-82
2021/10/29 00:39:20;;;;;;;12.00;7.90;;;;;;;7.61;95.73;100923.44;5053715;28;20032;-82
2021/10/29 00:41:45;;;;;;;11.77;7.43;;;;;;;7.59;95.44;100918.25;5052003;28;20036;-82
2021/10/29 00:44:11;;;;;;;12.27;7.88;;;;;;;7.64;96.00;100917.91;5054082;28;20480;-81
2021/10/29 00:46:36;;;;;;;17.08;8.25;;;;;;;7.69;96.11;100923.69;5053659;28;20114;-82
2021/10/29 01:56:11;;;;;;;9.05;6.88;;;;;;;8.40;90.51;100859.81;510047;26;20492;-82
2021/10/29 01:58:37;;;;;;;9.93;7.05;;;;;;;8.40;90.61;100854.50;4992792;28;20563;-83
2021/10/29 02:01:04;;;;;;;10.25;7.43;;;;;;;8.39;90.60;100855.50;4993695;28;20046;-80
2021/10/29 02:03:30;;;;;;;9.40;7.50;;;;;;;8.34;90.69;100851.53;4993134;28;20173;-81
2021/10/29 02:05:55;;;;;;;10.07;6.97;;;;;;;8.28;91.03;100848.41;4993505;28;20503;-83
2021/10/29 02:08:24;;;;;;;14.45;7.60;;;;;;;8.29;90.73;100849.25;4992912;28;20049;-80
2021/10/29 02:10:50;;;;;;;9.50;7.13;;;;;;;8.30;90.87;100843.81;4993622;28;20042;-81
2021/10/29 02:13:16;;;;;;;10.48;7.05;;;;;;;8.32;91.01;100843.69;4993644;28;20489;-81
2021/10/29 02:15:42;;;;;;;9.27;6.50;;;;;;;8.39;90.48;100836.94;4991670;28;20116;-80
2021/10/29 02:18:07;;;;;;;12.38;7.05;;;;;;;8.36;90.44;100834.53;4993249;28;20169;-81
2021/10/29 02:20:32;;;;;;;8.68;6.30;;;;;;;8.33;90.48;100834.78;4992857;28;20041;-81
2021/10/29 02:22:58;;;;;;;14.07;7.35;;;;;;;8.32;90.32;100837.56;4993671;28;20466;-81
2021/10/29 02:25:23;;;;;;;10.10;7.10;;;;;;;8.28;90.71;100824.56;4992677;28;20038;-81
2021/10/29 02:27:49;;;;;;;10.90;7.18;;;;;;;8.24;90.99;100824.91;4992620;28;20034;-81
2021/10/29 02:30:14;;;;;;;15.13;7.40;;;;;;;8.23;91.07;100825.88;4993430;28;20026;-82
2021/10/29 02:32:39;;;;;;;11.43;7.05;;;;;;;8.21;90.83;100819.84;4992862;28;20092;-81
2021/10/29 02:35:05;;;;;;;9.73;6.95;;;;;;;8.20;91.39;100826.97;4991818;28;20062;-82
2021/10/29 02:37:31;;;;;;;14.48;7.22;;;;;;;8.17;91.22;100829.03;4992793;28;20041;-81
2021/10/29 02:39:56;;;;;;;15.05;7.28;;;;;;;8.14;91.39;100810.75;4993130;28;20106;-80
2021/10/29 02:42:22;;;;;;;13.65;6.88;;;;;;;8.17;90.85;100826.38;4993256;28;20474;-81
2021/10/29 02:44:47;;;;;;;15.23;7.22;;;;;;;8.14;91.38;100821.34;4991588;28;20037;-80
2021/10/29 02:47:13;;;;;;;13.90;7.20;;;;;;;8.17;91.37;100821.09;4993129;28;20033;-82
2021/10/29 02:49:38;;;;;;;13.20;7.20;;;;;;;8.19;91.08;100816.50;4992686;28;20101;-82
2021/10/29 02:52:05;;;;;;;10.05;7.00;;;;;;;8.26;90.64;100820.34;4992893;28;20030;-83
2021/10/29 02:54:31;;;;;;;13.50;6.78;;;;;;;8.25;90.66;100806.22;4992861;28;20038;-83
2021/10/29 02:56:56;;;;;;;13.35;6.88;;;;;;;8.27;90.41;100804.31;4975428;28;20062;-82
2021/10/29 02:59:22;;;;;;;15.82;7.47;;;;;;;8.28;90.22;100803.34;4993097;28;20110;-81
2021/10/29 03:01:47;;;;;;;10.90;6.80;;;;;;;8.34;90.17;100807.28;4992208;28;20160;-83
2021/10/29 03:04:12;;;;;;;15.00;7.00;;;;;;;8.30;90.24;100809.34;4996776;28;20045;-81
2021/10/29 03:06:38;;;;;;;12.70;7.00;;;;;;;8.30;90.36;100805.88;4996254;28;20132;-82
2021/10/29 03:09:05;;;;;;;11.32;6.97;;;;;;;8.30;90.29;100804.06;4996850;28;20040;-81
2021/10/29 03:11:30;;;;;;;10.93;6.90;;;;;;;8.30;90.04;100800.56;4996352;28;20049;-83
2021/10/29 03:13:56;;;;;;;12.65;7.20;;;;;;;8.34;89.85;100796.69;4996672;28;20105;-83
2021/10/29 03:16:21;;;;;;;10.63;6.90;;;;;;;8.32;90.14;100795.97;4997044;28;20489;-80
2021/10/29 03:18:46;;;;;;;11.40;6.88;;;;;;;8.38;90.08;100802.59;4996097;28;20125;-79
2021/10/29 03:21:12;;;;;;;10.00;7.05;;;;;;;8.38;90.07;100792.00;4995305;28;20030;-80
2021/10/29 03:23:37;;;;;;;10.68;6.47;;;;;;;8.41;89.60;100789.09;4996000;28;20038;-80
2021/10/29 03:26:03;;;;;;;12.43;6.80;;;;;;;8.42;89.55;100793.41;4996522;28;20500;-80
2021/10/29 03:28:28;;;;;;;10.13;6.65;;;;;;;8.46;89.36;100793.06;4996255;28;20035;-81
2021/10/29 03:30:54;;;;;;;8.40;6.43;;;;;;;8.44;89.31;100795.00;4996329;28;20038;-80
2021/10/29 03:33:20;;;;;;;8.65;6.90;;;;;;;8.43;89.55;100788.00;4994962;28;20069;-80
2021/10/29 03:35:45;;;;;;;11.27;7.32;;;;;;;8.45;89.54;100785.25;4994916;28;20367;-81
2021/10/29 03:38:40;;;;;;;10.05;6.88;;;;;;;8.43;89.41;100789.78;4996401;28;20092;-81
2021/10/29 03:41:08;;;;;;;10.48;7.28;;;;;;;8.41;89.18;100787.25;4995139;28;20046;-77
2021/10/29 03:51:20;;;;;;;10.73;7.22;;;;;;;8.44;89.24;100784.38;4995987;28;20479;-81
2021/10/29 03:56:20;;;;;;;10.85;7.03;;;;;;;8.45;89.43;100779.94;4995822;28;20038;-85
2021/10/29 03:58:47;;;;;;;13.77;7.22;;;;;;;8.46;89.54;100774.50;4995096;28;20065;-80
2021/10/29 04:01:14;;;;;;;10.32;7.20;;;;;;;8.49;88.87;100775.22;4995955;28;20112;-79
2021/10/29 04:03:39;;;;;;;11.98;7.93;;;;;;;8.43;89.25;100769.44;4995537;28;20026;-79
2021/10/29 04:06:05;;;;;;;17.08;7.13;;;;;;;8.46;89.31;100771.00;4994535;28;20375;-80
2021/10/29 04:08:31;;;;;;;14.43;7.70;;;;;;;8.45;89.31;100770.16;4995693;28;20121;-81
2021/10/29 04:10:57;;;;;;;14.15;7.25;;;;;;;8.44;89.22;100772.94;4993875;28;20037;-79
2021/10/29 04:13:26;;;;;;;14.07;7.15;;;;;;;8.43;89.48;100771.22;4994968;28;20027;-83
2021/10/29 04:15:52;;;;;;;13.95;7.03;;;;;;;8.43;89.42;100768.56;4995172;28;20085;-83
2021/10/29 04:18:17;;;;;;;15.00;7.50;;;;;;;8.43;89.71;100765.91;4994229;28;20026;-83
2021/10/29 04:20:43;;;;;;;11.50;7.10;;;;;;;8.43;89.25;100772.09;4995062;28;20406;-82
2021/10/29 04:23:08;;;;;;;14.18;7.50;;;;;;;8.48;89.14;100766.44;4995337;28;20042;-80
2021/10/29 04:25:34;;;;;;;13.15;7.20;;;;;;;8.54;88.86;100755.31;4995099;28;20042;-84
2021/10/29 04:28:11;;;;;;;14.88;7.18;;;;;;;8.52;88.90;100761.69;4996430;28;20034;-85
2021/10/29 04:30:37;;;;;;;13.07;7.10;;;;;;;8.44;88.96;100755.22;4996759;28;20026;-84
2021/10/29 04:33:06;;;;;;;10.95;6.93;;;;;;;8.39;89.56;100757.41;4996838;28;20193;-82
2021/10/29 04:35:37;;;;;;;11.35;7.55;;;;;;;8.39;89.70;100753.88;4995731;28;20038;-83
2021/10/29 04:38:06;;;;;;;11.45;7.28;;;;;;;8.41;89.39;100755.44;4994876;28;20482;-84
2021/10/29 04:40:33;;;;;;;15.68;7.07;;;;;;;8.42;89.50;100737.72;4995136;28;20121;-85
2021/10/29 04:42:58;;;;;;;11.60;6.70;;;;;;;8.41;89.83;100750.13;4994384;28;20026;-81
2021/10/29 04:45:24;;;;;;;14.35;7.30;;;;;;;8.38;89.74;100745.09;4995084;28;20042;-83
2021/10/29 04:47:49;;;;;;;9.82;7.05;;;;;;;8.36;89.77;100744.38;4994401;28;20049;-84
2021/10/29 04:50:15;;;;;;;15.25;6.90;;;;;;;8.38;89.90;100744.25;4993499;28;20034;-82
2021/10/29 04:52:41;;;;;;;12.52;7.35;;;;;;;8.36;90.10;100738.22;4994088;28;20038;-84
2021/10/29 04:55:06;;;;;;;13.93;6.75;;;;;;;8.37;89.98;100732.78;4994844;28;20053;-84
2021/10/29 04:57:32;;;;;;;11.93;6.75;;;;;;;8.44;89.74;100730.53;4993239;28;20077;-83
2021/10/29 05:00:00;;;;;;;9.55;6.65;;;;;;;8.43;89.63;100734.09;4994252;28;20554;-84
2021/10/29 05:02:26;;;;;;;8.10;6.30;;;;;;;8.46;89.61;100733.88;4993329;28;20037;-83
2021/10/29 05:04:51;;;;;;;9.63;6.55;;;;;;;8.47;89.51;100735.56;4994081;28;20038;-82
2021/10/29 05:07:16;;;;;;;12.30;6.85;;;;;;;8.46;89.42;100731.22;4994384;28;20034;-82
2021/10/29 05:09:42;;;;;;;9.35;6.78;;;;;;;8.56;88.95;100736.63;4993899;28;20038;-82
2021/10/29 05:12:07;;;;;;;24.33;7.35;;;;;;;8.53;88.78;100734.22;4994443;28;20062;-83
2021/10/29 05:14:33;;;;;;;10.13;6.90;;;;;;;8.58;88.88;100737.31;4994210;28;20038;-84
2021/10/29 05:16:58;;;;;;;8.60;6.38;;;;;;;8.64;88.16;100735.00;4993914;28;20045;-83
2021/10/29 05:19:25;;;;;;;17.35;7.05;;;;;;;8.62;88.37;100723.66;4994079;28;20093;-85
2021/10/29 05:21:50;;;;;;;9.13;6.45;;;;;;;8.60;88.64;100730.09;4992639;28;20039;-82
2021/10/29 05:24:16;;;;;;;11.90;6.70;;;;;;;8.56;88.82;100726.00;4993013;28;20027;-84
2021/10/29 05:26:43;;;;;;;11.80;7.60;;;;;;;8.52;88.97;100724.56;4976553;28;20093;-83
2021/10/29 05:29:09;;;;;;;12.00;7.05;;;;;;;8.44;89.32;100719.91;4994068;28;20129;-83
2021/10/29 05:31:35;;;;;;;9.50;6.63;;;;;;;8.43;89.34;100715.53;4994272;28;20112;-84
2021/10/29 05:34:00;;;;;;;13.75;7.15;;;;;;;8.42;89.51;100714.72;4993663;28;20497;-83
2021/10/29 05:36:25;;;;;;;10.32;6.63;;;;;;;8.42;89.17;100719.16;4993842;28;20034;-84
2021/10/29 05:38:51;;;;;;;10.98;6.93;;;;;;;8.42;89.19;100717.38;4993344;28;20062;-84
2021/10/29 05:41:16;;;;;;;13.05;6.68;;;;;;;8.42;89.36;100713.84;4992732;28;20113;-79
2021/10/29 05:43:42;;;;;;;9.30;6.25;;;;;;;8.41;89.13;100713.03;4993856;28;20039;-80
2021/10/29 05:46:08;;;;;;;19.38;6.70;;;;;;;8.43;89.04;100710.25;4993668;28;20031;-81
2021/10/29 05:48:33;;;;;;;12.43;6.72;;;;;;;8.39;89.33;100711.47;4993723;28;20494;-80
2021/10/29 05:51:08;;;;;;;10.27;6.75;;;;;;;8.40;89.13;100708.69;4992084;28;20026;-80
2021/10/29 05:53:38;;;;;;;13.35;7.03;;;;;;;8.39;89.84;100719.41;4993652;28;20501;-81
2021/10/29 05:56:05;;;;;;;9.82;6.15;;;;;;;8.39;89.19;100712.31;4991887;28;20406;-80
2021/10/29 05:58:32;;;;;;;9.07;6.72;;;;;;;8.32;89.56;100711.16;4993464;28;20217;-80
2021/10/29 06:00:57;;;;;;;14.50;6.78;;;;;;;8.32;89.54;100713.78;4991774;28;20038;-80
2021/10/29 06:03:22;;;;;;;12.68;7.28;;;;;;;8.28;89.99;100712.34;4993328;28;20030;-81
2021/10/29 06:05:48;;;;;;;12.40;7.00;;;;;;;8.27;90.41;100705.38;4992857;28;20041;-81
2021/10/29 06:08:13;;;;;;;9.98;6.78;;;;;;;8.23;90.13;100719.88;4993329;28;20034;-80
2021/10/29 06:10:39;;;;;;;14.70;7.07;;;;;;;8.21;90.14;100708.53;4993802;28;20042;-80
2021/10/29 06:13:04;;;;;;;14.45;7.20;;;;;;;8.23;90.26;100702.13;4992941;28;20026;-80
2021/10/29 06:15:31;;;;;;;11.13;6.57;;;;;;;8.19;90.43;100703.34;4992171;28;20482;-81
2021/10/29 06:17:57;;;;;;;10.45;6.85;;;;;;;8.22;90.68;100704.91;4992758;28;20037;-81
2021/10/29 06:20:23;;;;;;;11.18;6.53;;;;;;;8.23;90.38;100710.09;4975962;28;20081;-79
2021/10/29 06:22:51;;;;;;;15.45;6.75;;;;;;;8.22;90.27;100708.41;4992984;28;20437;-81
2021/10/29 06:25:19;;;;;;;10.57;6.50;;;;;;;8.21;90.52;100713.81;4993359;28;20058;-80
2021/10/29 06:30:30;;;;;;;13.10;6.88;;;;;;;8.26;89.91;100715.13;4993152;28;20052;-82
2021/10/29 06:32:56;;;;;;;11.57;6.68;;;;;;;8.24;90.27;100705.63;4992589;28;20061;-80
2021/10/29 06:35:21;;;;;;;10.23;7.25;;;;;;;8.21;90.47;100700.56;4993512;28;20066;-80
2021/10/29 06:37:47;;;;;;;11.38;6.35;;;;;;;8.21;90.40;100693.47;4997043;28;20084;-82
2021/10/29 06:40:15;;;;;;;10.82;7.15;;;;;;;8.23;90.39;100707.44;4995552;28;20034;-81
2021/10/29 06:42:41;;;;;;;12.48;6.90;;;;;;;8.28;90.06;100701.75;4995918;28;20034;-80
2021/10/29 07:42:24;;;;;;;13.43;6.20;;;;;;;9.23;86.47;100666.31;4973014;28;20093;-80
2021/10/29 07:44:49;;;;;;;8.48;5.55;;;;;;;9.32;85.91;100662.00;4973892;28;20043;-79
2021/10/29 07:47:16;;;;;;;9.70;5.88;;;;;;;9.43;85.39;100661.88;4972339;28;20096;-80
2021/10/29 07:49:42;;;;;;;7.88;5.72;;;;;;;9.48;85.63;100667.66;4973967;28;20042;-79
2021/10/29 07:52:08;;;;;;;9.48;5.80;;;;;;;9.55;84.91;100659.94;4972744;28;20471;-79
2021/10/29 07:54:34;;;;;;;13.32;5.72;;;;;;;9.62;84.82;100663.75;4973676;28;20085;-81
2021/10/29 07:57:00;;;;;;;10.25;5.30;;;;;;;9.69;84.76;100658.75;4973294;28;20050;-80
2021/10/29 07:59:25;;;;;;;11.10;5.85;;;;;;;9.78;83.91;100654.38;4973547;28;20038;-81
2021/10/29 08:01:51;;;;;;;12.55;5.93;;;;;;;9.86;83.60;100650.06;4972351;28;20120;-82
2021/10/29 08:04:21;;;;;;;8.63;5.78;;;;;;;10.01;82.63;100644.34;4972313;28;20035;-80
2021/10/29 08:06:47;;;;;;;8.18;5.20;;;;;;;10.06;83.30;100640.28;4973551;28;20039;-83
2021/10/29 08:09:13;;;;;;;11.25;5.60;;;;;;;10.15;83.17;100651.03;4973583;28;20027;-85
2021/10/29 08:11:38;;;;;;;20.77;5.75;;;;;;;10.25;82.13;100643.91;4973397;28;20498;-78
2021/10/29 08:14:04;;;;;;;10.07;5.20;;;;;;;10.32;81.98;100641.53;4983652;28;20070;-83
2021/10/29 08:16:30;;;;;;;8.95;6.13;;;;;;;10.38;81.99;100639.16;4990222;28;20035;-80
2021/10/29 08:18:56;;;;;;;8.10;4.68;;;;;;;10.44;82.01;100631.59;4977432;28;20037;-90
2021/10/29 08:21:21;;;;;;;10.25;5.70;;;;;;;10.53;81.64;100628.09;4994873;28;20031;-84
2021/10/29 08:23:46;;;;;;;10.63;5.35;;;;;;;10.61;81.58;100627.34;4995386;28;20120;-82
2021/10/29 08:26:13;;;;;;;11.80;5.28;;;;;;;10.73;80.27;100629.72;4995054;28;20040;-84
2021/10/29 08:28:41;;;;;;;12.98;5.60;;;;;;;10.81;80.24;100621.00;4995390;28;20035;-85
2021/10/29 08:31:07;;;;;;;12.20;5.43;;;;;;;10.90;80.00;100619.28;4993372;28;20520;-85
2021/10/29 08:33:32;;;;;;;12.02;5.00;;;;;;;10.97;79.16;100614.19;4995137;28;20035;-83
2021/10/29 08:36:00;;;;;;;9.88;5.03;;;;;;;11.05;79.27;100614.31;4994801;28;20381;-84
2021/10/29 08:38:26;;;;;;;9.98;5.13;;;;;;;11.16;78.17;100611.44;4995139;28;20030;-83
2021/10/29 08:40:53;;;;;;;9.25;4.90;;;;;;;11.27;77.57;100615.72;4994135;28;20382;-85
2021/10/29 08:43:19;;;;;;;8.27;5.25;;;;;;;11.40;77.27;100610.03;4994495;28;20034;-81
2021/10/29 08:45:45;;;;;;;9.60;5.18;;;;;;;11.55;76.28;100613.03;4995005;28;20038;-81
2021/10/29 08:48:11;;;;;;;8.38;5.07;;;;;;;11.60;75.79;100610.75;4994318;28;20125;-83
2021/10/29 08:50:37;;;;;;;16.77;5.28;;;;;;;11.64;75.52;100617.44;4994769;28;20096;-82
2021/10/29 08:53:03;;;;;;;9.40;4.95;;;;;;;11.69;76.21;100606.31;4994481;28;20034;-84
2021/10/29 08:55:31;;;;;;;8.35;4.90;;;;;;;11.70;76.54;100618.66;4994742;28;20113;-80
2021/10/29 08:57:59;;;;;;;8.20;4.55;;;;;;;11.72;75.50;100606.88;4993241;28;20105;-79
2021/10/29 09:00:28;;;;;;;11.10;5.18;;;;;;;11.84;75.54;100604.81;4993930;28;20089;-80
2021/10/29 09:03:12;;;;;;;10.68;5.43;;;;;;;11.89;74.67;100602.53;4994534;28;20529;-83
2021/10/29 09:05:52;;;;;;;13.43;5.30;;;;;;;11.94;74.66;100604.75;4994544;28;20031;-75
2021/10/29 09:08:35;;;;;;;11.15;5.22;;;;;;;12.03;74.97;100601.16;4994083;28;20085;-80
2021/10/29 09:34:11;;;;;;;9.98;4.97;;;;;;;13.85;67.60;100587.63;4994327;28;20045;-82
2021/10/29 09:36:45;;;;;;;7.05;4.80;;;;;;;14.03;66.93;100584.78;4993830;28;20489;-81
2021/10/29 09:39:14;;;;;;;8.00;4.80;;;;;;;14.08;67.07;100585.09;4993919;28;20038;-80
2021/10/29 09:41:41;;;;;;;6.97;4.75;;;;;;;14.04;65.94;100581.09;4994249;28;20427;-81
2021/10/29 09:44:15;;;;;;;10.05;5.03;;;;;;;14.16;66.91;100578.91;4993382;28;20034;-81
2021/10/29 09:46:55;;;;;;;9.40;4.82;;;;;;;15.09;63.77;100574.81;4993799;28;20045;-80
2021/10/29 09:49:51;;;;;;;10.75;4.82;;;;;;;16.51;58.78;100566.34;4993583;28;20124;-81
2021/10/29 09:52:35;;;;;;;10.43;4.40;;;;;;;17.84;54.02;100565.41;4992944;28;20506;-78
2021/10/29 09:57:30;;;;;;;9.68;4.10;;;;;;;19.28;49.97;100555.94;4993001;28;20153;-82
2021/10/29 10:00:03;;;;;;;9.40;4.07;;;;;;;19.42;48.56;100554.91;4993567;28;20042;-80
2021/10/29 10:02:29;;;;;;;9.25;4.40;;;;;;;19.51;48.27;100544.78;4993326;28;20649;-80
2021/10/29 10:04:57;;;;;;;8.02;3.67;;;;;;;19.43;49.19;100545.81;4993698;28;20034;-80
2021/10/29 10:07:24;;;;;;;6.50;4.30;;;;;;;19.02;49.50;100547.56;4993008;28;20041;-79
2021/10/29 10:09:54;;;;;;;7.43;3.80;;;;;;;18.64;50.56;100537.19;4993294;28;20027;-77
2021/10/29 10:12:23;;;;;;;6.82;3.67;;;;;;;17.80;52.51;100530.00;4990811;28;20038;-77
2021/10/29 10:14:54;;;;;;;9.48;4.18;;;;;;;16.96;55.70;100538.63;4983263;28;20061;-78
2021/10/29 10:17:23;;;;;;;;;;;;;;;16.27;58.68;100516.44;4992582;28;20038;-79
2021/10/29 10:19:50;;;;;;;6.85;3.60;;;;;;;15.84;59.65;100517.03;4991207;28;19988;-77
2021/10/29 10:22:21;;;;;;;7.50;3.90;;;;;;;15.54;58.52;100508.03;4991877;28;20473;-79
2021/10/29 10:24:59;;;;;;;8.55;3.65;;;;;;;15.31;60.93;100502.66;4992783;28;20029;-80
2021/10/29 10:30:06;;;;;;;5.18;3.38;;;;;;;14.91;62.96;100507.25;4996503;28;20077;-81
2021/10/29 10:45:55;;;;;;;8.90;3.80;;;;;;;14.43;65.15;100475.97;4992504;28;20491;-83
2021/10/29 10:48:26;;;;;;;12.98;4.00;;;;;;;14.40;63.56;100476.31;4991984;28;20034;-77
2021/10/29 10:50:56;;;;;;;12.43;4.07;;;;;;;14.41;64.70;100478.00;4992503;28;20458;-78
2021/10/29 10:53:36;;;;;;;8.13;4.03;;;;;;;14.41;65.00;100486.03;4991807;28;20035;-76
2021/10/29 10:56:27;;;;;;;13.07;3.95;;;;;;;14.41;65.11;100494.06;4992267;28;20030;-79
2021/10/29 10:59:24;;;;;;;11.77;3.73;;;;;;;14.49;65.11;100495.03;4991822;28;20054;-75
2021/10/29 11:04:34;;;;;;;6.60;3.80;;;;;;;14.56;65.40;100474.59;4991982;28;20442;-78
2021/10/29 11:07:07;;;;;;;8.70;4.10;;;;;;;14.56;64.19;100478.09;4992247;28;20034;-77
2021/10/29 11:09:56;;;;;;;7.88;4.00;;;;;;;14.58;63.37;100468.03;4990596;28;20065;-75
2021/10/29 11:12:42;;;;;;;7.78;3.83;;;;;;;14.65;64.29;100472.75;4991649;28;20026;-81
2021/10/29 11:15:17;;;;;;;8.00;4.13;;;;;;;14.66;64.83;100471.72;4983865;28;20042;-76
2021/10/29 11:17:51;;;;;;;9.38;3.50;;;;;;;14.76;63.40;100486.59;4992133;28;20049;-75
2021/10/29 11:20:43;;;;;;;6.20;3.70;;;;;;;14.82;64.53;100485.03;4991681;28;20146;-72
2021/10/29 11:23:25;;;;;;;8.25;4.18;;;;;;;14.94;64.43;100472.09;4993394;28;20030;-75
2021/10/29 11:26:05;;;;;;;8.20;4.13;;;;;;;15.12;64.18;100464.63;4995504;28;20052;-73
2021/10/29 11:28:43;;;;;;;8.10;3.70;;;;;;;15.29;64.15;100467.19;4995082;28;20042;-72
2021/10/29 11:31:13;;;;;;;9.70;4.18;;;;;;;15.39;63.23;100457.03;4995431;28;20062;-73
2021/10/29 11:33:43;;;;;;;8.73;4.25;;;;;;;15.48;63.13;100447.91;4994976;28;20394;-81
2021/10/29 11:36:11;;;;;;;12.15;3.88;;;;;;;15.57;62.58;100454.03;4995533;28;20102;-79
2021/10/29 11:38:40;;;;;;;10.50;3.90;;;;;;;15.59;62.36;100453.88;4994990;28;20042;-75
2021/10/29 11:41:14;;;;;;;7.93;3.63;;;;;;;15.64;61.60;100456.81;4993960;28;20475;-73
2021/10/29 11:43:40;;;;;;;6.45;3.55;;;;;;;15.59;61.14;100435.09;4994711;28;20358;-73
2021/10/29 11:46:08;;;;;;;11.35;3.95;;;;;;;15.64;61.92;100422.78;4995383;28;20049;-75
2021/10/29 11:48:45;;;;;;;15.50;4.22;;;;;;;15.72;61.93;100429.94;4994760;28;20034;-75
2021/10/29 11:51:15;;;;;;;9.48;3.83;;;;;;;15.72;61.76;100427.25;4995165;28;20045;-80
2021/10/29 11:53:47;;;;;;;7.38;3.85;;;;;;;15.69;61.51;100420.41;4994632;28;20441;-78
2021/10/29 12:01:55;;;;;;;6.65;3.70;;;;;;;15.69;61.68;100409.69;4994476;28;20538;-80
2021/10/29 12:07:21;;;;;;;10.13;3.60;;;;;;;15.75;61.75;100410.78;4994822;28;20096;-78
2021/10/29 12:09:51;;;;;;;8.05;3.17;;;;;;;15.85;62.22;100397.97;4994920;28;20052;-79
2021/10/29 12:12:29;;;;;;;16.73;4.00;;;;;;;15.89;60.97;100387.72;4994994;28;20031;-76
2021/10/29 12:15:01;;;;;;;11.75;3.90;;;;;;;15.89;62.00;100381.50;4994563;28;20366;-84
2021/10/29 12:17:32;;;;;;;9.98;3.65;;;;;;;15.95;62.96;100396.88;4994538;28;20022;-82
2021/10/29 12:20:03;;;;;;;9.35;4.00;;;;;;;15.99;62.40;100395.50;4994758;28;20037;-82
2021/10/29 12:22:41;;;;;;;10.93;4.00;;;;;;;16.07;61.54;100406.13;4994465;28;20026;-73
2021/10/29 12:25:21;;;;;;;10.85;3.92;;;;;;;16.19;62.21;100399.25;4994275;28;20034;-77
2021/10/29 12:27:57;;;;;;;9.30;3.55;;;;;;;16.34;61.41;100384.97;4994668;28;20154;-75
2021/10/29 13:03:42;;;;;;;5.65;3.08;;;;;;;16.59;60.47;100342.50;4993623;28;20041;-80
2021/10/29 13:06:08;;;;;;;6.90;3.90;;;;;;;16.34;60.11;100344.72;4993714;28;20030;-82
2021/10/29 13:08:38;;;;;;;7.70;3.67;;;;;;;16.23;61.10;100340.66;4993149;28;20556;-78
2021/10/29 13:11:04;;;;;;;6.13;3.67;;;;;;;16.12;61.93;100343.81;4993644;28;20049;-81
2021/10/29 13:13:36;;;;;;;9.00;4.00;;;;;;;15.92;62.04;100347.09;4993086;28;20034;-80
2021/10/29 13:16:05;;;;;;;10.00;3.90;;;;;;;15.88;60.99;100336.91;4992572;28;20041;-85
2021/10/29 13:18:45;;;;;;;5.50;3.40;;;;;;;15.89;62.19;100343.97;4993229;28;20045;-78
2021/10/29 13:24:23;;;;;;;12.30;3.90;;;;;;;15.78;61.64;100348.78;4993840;28;20042;-81
2021/10/29 13:27:40;;;;;;;13.95;4.15;;;;;;;15.81;62.42;100345.72;4992927;28;20050;-84
2021/10/29 13:35:20;;;;;;;9.93;3.35;;;;;;;15.77;63.60;100346.25;4993293;28;20050;-84
2021/10/29 14:32:03;;;;;;;6.72;4.10;;;;;;;13.44;80.22;100397.00;4970865;28;20069;-83
2021/10/29 14:34:36;;;;;;;7.35;4.30;;;;;;;13.29;81.28;100392.28;4971194;28;20067;-81
2021/10/29 14:44:52;;;;;;;8.95;4.07;;;;;;;12.68;86.79;100395.22;4970319;28;20042;-80
2021/10/29 14:47:42;;;;;;;14.18;4.30;;;;;;;12.59;87.13;100406.91;4969745;28;20057;-79
2021/10/29 14:52:58;;;;;;;5.45;3.92;;;;;;;12.50;87.95;100415.88;4970293;28;20479;-77
2021/10/29 15:30:35;;;;;;;7.13;3.30;;;;;;;12.68;85.24;100419.25;4973863;28;20060;-81
2021/10/29 15:46:55;;;;;;;6.47;2.75;;;;;;;12.61;85.00;100406.72;4973772;28;20478;-84
2021/10/29 15:49:00;;;;;;;6.00;2.70;;;;;;;12.53;84.55;100421.72;4970026;28;20051;-82
2021/10/29 15:51:29;;;;;;;5.63;2.83;;;;;;;12.48;84.86;100421.38;4974805;28;20039;-81
2021/10/29 15:53:54;;;;;;;8.52;2.97;;;;;;;12.51;84.24;100426.38;4971671;28;20026;-80
2021/10/29 15:59:17;;;;;;;12.85;3.10;;;;;;;12.56;84.27;100435.75;4974127;28;20053;-77
2021/10/29 16:17:52;;;;;;;11.07;3.10;;;;;;;12.36;85.48;100438.69;4972359;28;20046;-80
2021/10/29 16:20:18;;;;;;;5.85;2.88;;;;;;;12.30;85.70;100458.81;4971947;28;20399;-79
2021/10/29 16:22:43;;;;;;;6.57;3.85;;;;;;;12.34;85.13;100449.50;4972762;28;20039;-81
2021/10/29 16:25:15;;;;;;;8.85;3.40;;;;;;;12.28;85.67;100458.13;4971770;28;20042;-81
2021/10/29 16:30:27;;;;;;;6.00;3.10;;;;;;;12.21;85.99;100457.13;4972794;28;20130;-77
2021/10/29 16:35:28;;;;;;;5.70;3.88;;;;;;;12.19;86.20;100458.28;4972836;28;20082;-85
2021/10/29 16:37:54;;;;;;;12.93;3.65;;;;;;;12.20;85.67;100463.44;4972187;28;20451;-82
2021/10/29 16:40:20;;;;;;;8.10;3.38;;;;;;;12.24;85.87;100471.94;4973040;28;20077;-77
2021/10/29 16:42:46;;;;;;;9.38;3.60;;;;;;;12.19;86.11;100467.09;4971881;28;20410;-79
2021/10/29 16:45:14;;;;;;;8.80;3.60;;;;;;;12.19;85.75;100469.75;4973036;28;20034;-78
2021/10/29 16:47:42;;;;;;;9.90;3.97;;;;;;;12.22;85.97;100473.94;4972492;28;20042;-78
2021/10/29 16:50:13;;;;;;;6.80;3.42;;;;;;;12.22;85.14;100472.09;4970982;28;20038;-79
2021/10/29 16:52:40;;;;;;;10.53;3.47;;;;;;;12.16;85.86;100473.56;4972776;28;20094;-80
2021/10/29 16:55:08;;;;;;;7.28;3.28;;;;;;;12.08;86.62;100470.88;4972265;28;20061;-82
2021/10/29 16:57:34;;;;;;;6.88;3.67;;;;;;;12.03;87.01;100472.34;4972226;28;20038;-83
2021/10/29 17:00:01;;;;;;;6.38;3.33;;;;;;;11.95;87.14;100476.63;4972173;28;20046;-82
2021/10/29 17:02:26;;;;;;;8.43;3.70;;;;;;;11.96;86.76;100475.63;4972398;28;20188;-84
2021/10/29 17:04:52;;;;;;;8.10;3.92;;;;;;;11.96;87.28;100491.63;4954559;28;20030;-79
2021/10/29 17:07:18;;;;;;;5.32;3.40;;;;;;;11.93;87.57;100486.63;4972416;28;20039;-81
2021/10/29 17:09:43;;;;;;;8.10;3.58;;;;;;;11.96;87.06;100493.47;4972172;28;20031;-78
2021/10/29 17:12:09;;;;;;;12.38;3.55;;;;;;;11.96;87.48;100485.47;4971981;28;20534;-81
2021/10/29 17:14:34;;;;;;;8.38;3.50;;;;;;;11.94;87.11;100490.97;4972325;28;20066;-82
2021/10/29 17:17:00;;;;;;;8.35;3.78;;;;;;;11.93;88.15;100491.13;4971502;28;20050;-79
2021/10/29 17:19:25;;;;;;;4.93;3.58;;;;;;;11.91;87.46;100498.38;4972221;28;20026;-82
2021/10/29 17:21:51;;;;;;;7.80;4.35;;;;;;;11.86;88.20;100498.84;4969910;28;20055;-80
2021/10/29 17:24:18;;;;;;;8.25;3.70;;;;;;;11.84;88.06;100506.19;4972380;28;20094;-84
2021/10/29 17:26:44;;;;;;;9.05;3.08;;;;;;;11.82;87.69;100509.00;4954736;28;20130;-77
2021/10/29 17:29:10;;;;;;;4.82;3.35;;;;;;;11.81;88.41;100507.31;4971437;28;20046;-82
2021/10/29 17:31:36;;;;;;;5.28;4.28;;;;;;;11.79;88.36;100516.47;4970448;28;20098;-82
2021/10/29 17:34:02;;;;;;;12.40;6.18;;;;;;;11.86;87.52;100511.38;4969586;28;20031;-81
2021/10/29 17:36:28;;;;;;;30.77;19.63;;;;;;;11.85;87.29;100518.50;4971640;28;20118;-83
2021/10/29 17:38:54;;;;;;;7.97;4.10;;;;;;;11.84;87.63;100511.53;4983335;28;20031;-84